KRBO

Nueces County Airport

Robstown, Texas, USA
METAR KRBO 190835Z AUTO 13004KT 10SM CLR 25/24 A2992 RMK AO2 T02500240
Observed Flight Rules
Sep-19 @ 08:35 UTC (29 minutes ago) Visual Flight Rules
Wind Visibility Clouds
130° at 4 knots 10 miles
  • Clear skies
Temperatures Readings
Current 25°C / 77°F
Dewpoint 24°C / 75°F
Humidity 94%
Altimeter 29.92" Hg
Pressure 1013 hPa
Elevation 24
METAR KRBO 190835Z AUTO 13004KT 10SM CLR 25/24 A2992 RMK AO2 T02500240
Observed Flight Rules
Sep-19 @ 08:35 UTC
(29 minutes ago)
VFR
Wind Visibility
130° at 4 knots 10 miles
Clouds
  • Clear skies
Temperature Dewpoint
25°C / 77°F 24°C / 75°F
Humidity Altimeter Pressure
94% 29.92" Hg 1013 hPa